Time;durP1;ratioP1;P1;durP2;ratioP2;P2;SDS_P1;SDS_P2;PMS_P1;PMS_P2;Temp;Humidity;BMP_temperature;BMP_pressure;BME280_temperature;BME280_humidity;BME280_pressure;Samples;Min_cycle;Max_cycle;Signal;HPM_P1;HPM_P2
2022/05/20 00:00:42;;;;;;;;;;;;;;;;;;5012019;28;1295;-78
2022/05/20 00:03:09;;;;;;;;;;;;;;;;;;5011785;28;780;-77
2022/05/20 00:05:36;;;;;;;;;;;;;;;;;;5012082;28;1068;-76
2022/05/20 00:08:02;;;;;;;;;;;;;;;;;;5011510;28;830;-77
2022/05/20 00:10:28;;;;;;;;;;;;;;;;;;5011677;28;1911;-76
2022/05/20 00:12:55;;;;;;;;;;;;;;;;;;5011746;28;1059;-77
2022/05/20 00:15:22;;;;;;;;;;;;;;;;;;5011375;28;815;-77
2022/05/20 00:17:49;;;;;;;;;;;;;;;;;;4993904;28;1160;-76
2022/05/20 00:20:16;;;;;;;;;;;;;;;;;;5011829;28;1334;-76
2022/05/20 00:22:42;;;;;;;;;;;;;;;;;;5010363;28;1611;-76
2022/05/20 00:27:53;;;;;;;;;;;;;;;;;;5011318;28;941;-77
2022/05/20 00:30:20;;;;;;;;;;;;;;;;;;5011813;28;1959;-76
2022/05/20 00:32:46;;;;;;;;;;;;;;;;;;5009893;28;2184;-76
2022/05/20 00:35:14;;;;;;;;;;;;;;;;;;5011974;28;1234;-75
2022/05/20 00:37:41;;;;;;;;;;;;;;;;;;5011906;28;791;-76
2022/05/20 00:40:08;;;;;;;;;;;;;;;;;;5015402;28;1305;-76
2022/05/20 00:42:35;;;;;;;;;;;;;;;;;;5017581;28;763;-76
2022/05/20 00:45:01;;;;;;;;;;;;;;;;;;5014943;28;787;-75
2022/05/20 00:47:28;;;;;;;;;;;;;;;;;;4993771;28;1239;-76
2022/05/20 00:49:54;;;;;;;;;;;;;;;;;;5010935;28;1910;-77
2022/05/20 00:52:22;;;;;;;;;;;;;;;;;;4993447;28;1174;-78
2022/05/20 00:54:49;;;;;;;;;;;;;;;;;;4993507;28;1455;-77
2022/05/20 00:57:16;;;;;;;;;;;;;;;;;;5010923;28;1064;-77
2022/05/20 00:59:43;;;;;;;;;;;;;;;;;;5011339;28;1276;-77
2022/05/20 01:02:10;;;;;;;;;;;;;;;;;;5010977;28;938;-78
2022/05/20 01:04:36;;;;;;;;;;;;;;;;;;5011211;28;1096;-76
2022/05/20 01:07:03;;;;;;;;;;;;;;;;;;5010522;28;1135;-77
2022/05/20 01:09:30;;;;;;;;;;;;;;;;;;5011157;28;1279;-76
2022/05/20 01:11:56;;;;;;;;;;;;;;;;;;5010615;28;1919;-74
2022/05/20 01:14:23;;;;;;;;;;;;;;;;;;5010893;28;1155;-76
2022/05/20 01:16:50;;;;;;;;;;;;;;;;;;5010488;28;954;-76
2022/05/20 01:19:17;;;;;;;;;;;;;;;;;;5010714;28;1123;-76
2022/05/20 01:21:43;;;;;;;;;;;;;;;;;;5009995;28;1085;-76
2022/05/20 01:24:11;;;;;;;;;;;;;;;;;;5010673;28;918;-77
2022/05/20 01:26:37;;;;;;;;;;;;;;;;;;4992495;28;1179;-77
2022/05/20 01:29:03;;;;;;;;;;;;;;;;;;4992935;28;1219;-76
2022/05/20 01:31:29;;;;;;;;;;;;;;;;;;5010416;28;1914;-77
2022/05/20 01:33:56;;;;;;;;;;;;;;;;;;5010371;28;913;-77
2022/05/20 01:36:23;;;;;;;;;;;;;;;;;;5010425;28;1127;-76
2022/05/20 01:38:50;;;;;;;;;;;;;;;;;;5010439;28;764;-77
2022/05/20 01:41:19;;;;;;;;;;;;;;;;;;5010520;28;1299;-75
2022/05/20 01:43:53;;;;;;;;;;;;;;;;;;5010405;28;977;-76
2022/05/20 01:46:28;;;;;;;;;;;;;;;;;;4992387;28;915;-74
2022/05/20 01:48:57;;;;;;;;;;;;;;;;;;5012274;28;1072;-75
2022/05/20 01:51:24;;;;;;;;;;;;;;;;;;4996689;28;1926;-74
2022/05/20 01:53:52;;;;;;;;;;;;;;;;;;4996654;28;1133;-76
2022/05/20 01:56:21;;;;;;;;;;;;;;;;;;5014266;28;942;-76
2022/05/20 01:58:48;;;;;;;;;;;;;;;;;;5014256;28;696;-76
2022/05/20 02:01:16;;;;;;;;;;;;;;;;;;5013939;28;1560;-76
2022/05/20 02:03:44;;;;;;;;;;;;;;;;;;5012717;28;984;-76
2022/05/20 02:06:11;;;;;;;;;;;;;;;;;;5012853;28;1164;-75
2022/05/20 02:08:38;;;;;;;;;;;;;;;;;;5014153;28;1064;-76
2022/05/20 02:11:05;;;;;;;;;;;;;;;;;;5012629;28;1910;-76
2022/05/20 02:13:34;;;;;;;;;;;;;;;;;;5014208;28;1127;-76
2022/05/20 02:16:01;;;;;;;;;;;;;;;;;;5013882;28;989;-76
2022/05/20 02:18:28;;;;;;;;;;;;;;;;;;5012553;28;1165;-76
2022/05/20 02:20:56;;;;;;;;;;;;;;;;;;5013654;28;1278;-77
2022/05/20 02:23:23;;;;;;;;;;;;;;;;;;5013736;28;692;-76
2022/05/20 02:25:49;;;;;;;;;;;;;;;;;;5014076;28;734;-76
2022/05/20 02:28:16;;;;;;;;;;;;;;;;;;5012560;28;1292;-76
2022/05/20 02:30:44;;;;;;;;;;;;;;;;;;5013441;28;1902;-76
2022/05/20 02:33:10;;;;;;;;;;;;;;;;;;5013542;28;1005;-76
2022/05/20 02:38:10;;;;;;;;;;;;;;;;;;5043192;28;2156;-72
2022/05/20 02:40:36;;;;;;;;;;;;;;;;;;5033652;28;1079;-73
2022/05/20 02:43:02;;;;;;;;;;;;;;;;;;5033696;28;807;-73
2022/05/20 02:45:28;;;;;;;;;;;;;;;;;;5015952;28;1412;-73
2022/05/20 02:47:56;;;;;;;;;;;;;;;;;;5033317;28;1310;-72
2022/05/20 02:50:22;;;;;;;;;;;;;;;;;;5033729;28;945;-73
2022/05/20 02:52:48;;;;;;;;;;;;;;;;;;5015364;28;1922;-72
2022/05/20 02:55:14;;;;;;;;;;;;;;;;;;5033276;28;1178;-73
2022/05/20 02:57:42;;;;;;;;;;;;;;;;;;5033034;28;1354;-72
2022/05/20 03:05:52;;;;;;;;;;;;;;;;;;4971947;28;1360;-72
2022/05/20 03:08:18;;;;;;;;;;;;;;;;;;4971668;28;871;-73
2022/05/20 03:10:45;;;;;;;;;;;;;;;;;;4998338;28;1978;-72
2022/05/20 03:13:11;;;;;;;;;;;;;;;;;;5032845;28;1123;-71
2022/05/20 03:15:37;;;;;;;;;;;;;;;;;;5033025;28;1324;-72
2022/05/20 03:18:04;;;;;;;;;;;;;;;;;;5032573;28;1048;-74
2022/05/20 03:20:30;;;;;;;;;;;;;;;;;;5033236;28;942;-74
2022/05/20 03:22:57;;;;;;;;;;;;;;;;;;5014933;28;1271;-74
2022/05/20 03:25:24;;;;;;;;;;;;;;;;;;5032959;28;873;-74
2022/05/20 03:27:50;;;;;;;;;;;;;;;;;;5014779;28;1506;-73
2022/05/20 03:30:16;;;;;;;;;;;;;;;;;;5032571;28;1092;-74
2022/05/20 03:32:43;;;;;;;;;;;;;;;;;;5032653;28;1954;-72
2022/05/20 03:35:09;;;;;;;;;;;;;;;;;;5032886;28;1148;-72
2022/05/20 03:37:35;;;;;;;;;;;;;;;;;;5014832;28;1327;-71
2022/05/20 03:40:03;;;;;;;;;;;;;;;;;;5032660;28;973;-71
2022/05/20 03:42:29;;;;;;;;;;;;;;;;;;5032675;28;821;-71
2022/05/20 03:44:55;;;;;;;;;;;;;;;;;;5014773;28;1267;-71
2022/05/20 03:47:22;;;;;;;;;;;;;;;;;;5032267;28;1414;-73
2022/05/20 03:49:48;;;;;;;;;;;;;;;;;;5032342;28;818;-73
2022/05/20 03:52:14;;;;;;;;;;;;;;;;;;5014076;28;1975;-72
2022/05/20 03:54:40;;;;;;;;;;;;;;;;;;5014430;28;1161;-72
2022/05/20 03:57:09;;;;;;;;;;;;;;;;;;5031385;28;1481;-72
2022/05/20 03:59:36;;;;;;;;;;;;;;;;;;5032156;28;770;-72
2022/05/20 04:02:04;;;;;;;;;;;;;;;;;;5031862;28;1067;-73
2022/05/20 04:04:36;;;;;;;;;;;;;;;;;;5032219;28;1052;-72
2022/05/20 04:07:03;;;;;;;;;;;;;;;;;;5031426;28;1597;-71
2022/05/20 04:09:29;;;;;;;;;;;;;;;;;;5013923;28;1520;-72
2022/05/20 04:11:55;;;;;;;;;;;;;;;;;;5031105;28;1918;-73
2022/05/20 04:14:23;;;;;;;;;;;;;;;;;;5031912;28;1123;-73
2022/05/20 04:16:55;;;;;;;;;;;;;;;;;;5031885;28;1367;-73
2022/05/20 04:19:21;;;;;;;;;;;;;;;;;;5030527;28;1895;-72
2022/05/20 04:21:47;;;;;;;;;;;;;;;;;;5040467;28;1588;-72
2022/05/20 04:24:13;;;;;;;;;;;;;;;;;;5027414;28;929;-74
2022/05/20 04:26:39;;;;;;;;;;;;;;;;;;5045563;28;1658;-72
2022/05/20 04:29:05;;;;;;;;;;;;;;;;;;5034146;28;1764;-72
2022/05/20 04:31:33;;;;;;;;;;;;;;;;;;5030764;28;1971;-73
2022/05/20 04:33:59;;;;;;;;;;;;;;;;;;5032842;28;1111;-72
2022/05/20 04:36:26;;;;;;;;;;;;;;;;;;5037806;28;1963;-72
2022/05/20 04:38:52;;;;;;;;;;;;;;;;;;5036076;28;1891;-73
2022/05/20 04:46:59;;;;;;;;;;;;;;;;;;5030200;28;1871;-71
2022/05/20 04:49:25;;;;;;;;;;;;;;;;;;5023558;28;1705;-72
2022/05/20 04:51:52;;;;;;;;;;;;;;;;;;5030186;28;1918;-73
2022/05/20 04:57:01;;;;;;;;;;;;;;;;;;5031149;28;1697;-72
2022/05/20 04:59:28;;;;;;;;;;;;;;;;;;5032180;28;1786;-72
2022/05/20 05:01:55;;;;;;;;;;;;;;;;;;5017179;28;1335;-73
2022/05/20 05:04:21;;;;;;;;;;;;;;;;;;5018019;28;1139;-73
2022/05/20 05:06:48;;;;;;;;;;;;;;;;;;5010887;28;1396;-72
2022/05/20 05:09:14;;;;;;;;;;;;;;;;;;5010873;28;850;-72
2022/05/20 05:11:40;;;;;;;;;;;;;;;;;;5011052;28;1914;-71
2022/05/20 05:14:08;;;;;;;;;;;;;;;;;;4993301;28;1129;-71
2022/05/20 05:16:35;;;;;;;;;;;;;;;;;;5010641;28;1319;-71
2022/05/20 05:19:02;;;;;;;;;;;;;;;;;;5011055;28;1164;-72
2022/05/20 05:21:28;;;;;;;;;;;;;;;;;;5010560;28;945;-71
2022/05/20 05:23:55;;;;;;;;;;;;;;;;;;5018897;28;1381;-73
2022/05/20 05:26:21;;;;;;;;;;;;;;;;;;5012543;28;1349;-72
2022/05/20 05:28:47;;;;;;;;;;;;;;;;;;5029715;28;1487;-73
2022/05/20 05:31:13;;;;;;;;;;;;;;;;;;5012726;28;1914;-73
2022/05/20 05:33:39;;;;;;;;;;;;;;;;;;5030270;28;883;-73
2022/05/20 05:36:07;;;;;;;;;;;;;;;;;;5012258;28;1314;-72
2022/05/20 05:38:33;;;;;;;;;;;;;;;;;;5029629;28;1318;-71
2022/05/20 05:41:00;;;;;;;;;;;;;;;;;;5029769;28;1205;-73
2022/05/20 05:43:26;;;;;;;;;;;;;;;;;;5011051;28;1533;-72
2022/05/20 05:45:52;;;;;;;;;;;;;;;;;;5029249;28;1311;-73
2022/05/20 05:48:18;;;;;;;;;;;;;;;;;;5009598;28;1350;-71
2022/05/20 05:50:45;;;;;;;;;;;;;;;;;;5033174;28;1392;-73
2022/05/20 05:53:13;;;;;;;;;;;;;;;;;;5030119;28;1965;-72
2022/05/20 05:55:39;;;;;;;;;;;;;;;;;;5029143;28;1450;-72
2022/05/20 05:58:06;;;;;;;;;;;;;;;;;;5030249;28;1163;-72
2022/05/20 06:00:32;;;;;;;;;;;;;;;;;;5029470;28;972;-73
2022/05/20 06:02:58;;;;;;;;;;;;;;;;;;5029645;28;1544;-73
2022/05/20 06:05:24;;;;;;;;;;;;;;;;;;5030277;28;1122;-73
2022/05/20 06:07:52;;;;;;;;;;;;;;;;;;5029822;28;1348;-72
2022/05/20 06:10:20;;;;;;;;;;;;;;;;;;5030116;28;1099;-72
2022/05/20 06:12:47;;;;;;;;;;;;;;;;;;5029990;28;1988;-73
2022/05/20 06:15:14;;;;;;;;;;;;;;;;;;5030321;28;1139;-73
2022/05/20 06:17:40;;;;;;;;;;;;;;;;;;5029629;28;1364;-72
2022/05/20 06:20:07;;;;;;;;;;;;;;;;;;5030030;28;1155;-73
2022/05/20 06:22:33;;;;;;;;;;;;;;;;;;5029824;28;822;-73
2022/05/20 06:24:59;;;;;;;;;;;;;;;;;;5030270;28;1123;-73
2022/05/20 06:27:27;;;;;;;;;;;;;;;;;;5029667;28;1294;-72
2022/05/20 06:29:53;;;;;;;;;;;;;;;;;;5030167;28;802;-73
2022/05/20 06:32:19;;;;;;;;;;;;;;;;;;5029929;28;1910;-73
2022/05/20 06:40:13;;;;;;;;;;;;;;;;;;5033691;28;1123;-73
2022/05/20 06:42:42;;;;;;;;;;;;;;;;;;5033488;28;822;-73
2022/05/20 06:45:09;;;;;;;;;;;;;;;;;;5033555;28;878;-74
2022/05/20 06:47:35;;;;;;;;;;;;;;;;;;5033228;28;1344;-73
2022/05/20 06:50:01;;;;;;;;;;;;;;;;;;5033626;28;870;-74
2022/05/20 06:52:28;;;;;;;;;;;;;;;;;;5033374;28;1910;-71
2022/05/20 06:54:54;;;;;;;;;;;;;;;;;;5032993;28;822;-73
2022/05/20 06:57:20;;;;;;;;;;;;;;;;;;5032995;28;1294;-72
2022/05/20 06:59:47;;;;;;;;;;;;;;;;;;5033330;28;1108;-74
2022/05/20 07:02:14;;;;;;;;;;;;;;;;;;5033047;28;1080;-73
2022/05/20 07:04:40;;;;;;;;;;;;;;;;;;5033057;28;849;-72
2022/05/20 07:07:06;;;;;;;;;;;;;;;;;;5032579;28;1330;-74
2022/05/20 07:09:32;;;;;;;;;;;;;;;;;;5032985;28;929;-71
2022/05/20 07:11:59;;;;;;;;;;;;;;;;;;5033026;28;1907;-73
2022/05/20 07:14:25;;;;;;;;;;;;;;;;;;5032592;28;1068;-73
2022/05/20 07:16:52;;;;;;;;;;;;;;;;;;5032757;28;1393;-73
2022/05/20 07:19:19;;;;;;;;;;;;;;;;;;5032865;28;850;-73
2022/05/20 07:21:45;;;;;;;;;;;;;;;;;;5032939;28;1064;-73
2022/05/20 07:24:11;;;;;;;;;;;;;;;;;;5031605;28;1144;-73
2022/05/20 07:26:37;;;;;;;;;;;;;;;;;;5032572;28;1387;-73
2022/05/20 07:29:04;;;;;;;;;;;;;;;;;;5032764;28;807;-73
2022/05/20 07:31:30;;;;;;;;;;;;;;;;;;5032639;28;968;-72
2022/05/20 07:33:58;;;;;;;;;;;;;;;;;;5026468;28;1918;-73
2022/05/20 07:36:24;;;;;;;;;;;;;;;;;;5027038;28;1373;-73
2022/05/20 07:38:51;;;;;;;;;;;;;;;;;;5032051;28;846;-73
2022/05/20 07:41:19;;;;;;;;;;;;;;;;;;5014533;28;885;-73
2022/05/20 07:43:45;;;;;;;;;;;;;;;;;;5014021;28;1029;-73
2022/05/20 07:46:12;;;;;;;;;;;;;;;;;;5030668;28;1322;-71
2022/05/20 07:48:38;;;;;;;;;;;;;;;;;;5031704;28;957;-72
2022/05/20 07:51:06;;;;;;;;;;;;;;;;;;5031584;28;1119;-73
2022/05/20 07:53:35;;;;;;;;;;;;;;;;;;5031432;28;1924;-73
2022/05/20 07:56:02;;;;;;;;;;;;;;;;;;5014681;28;1586;-74
2022/05/20 07:58:29;;;;;;;;;;;;;;;;;;5031443;28;1001;-73
2022/05/20 08:00:58;;;;;;;;;;;;;;;;;;5013599;28;1115;-73
2022/05/20 08:06:10;;;;;;;;;;;;;;;;;;5030815;28;1387;-73
2022/05/20 08:08:36;;;;;;;;;;;;;;;;;;5031117;28;906;-73
2022/05/20 08:11:02;;;;;;;;;;;;;;;;;;5031188;28;1072;-73
2022/05/20 08:13:28;;;;;;;;;;;;;;;;;;5030811;28;1972;-73
2022/05/20 08:15:55;;;;;;;;;;;;;;;;;;5030890;28;1391;-73
2022/05/20 08:18:21;;;;;;;;;;;;;;;;;;5030857;28;957;-74
2022/05/20 08:20:47;;;;;;;;;;;;;;;;;;5031273;28;1080;-74
2022/05/20 08:23:15;;;;;;;;;;;;;;;;;;5031187;28;1055;-74
2022/05/20 08:25:41;;;;;;;;;;;;;;;;;;5013121;28;1302;-74
2022/05/20 08:28:08;;;;;;;;;;;;;;;;;;5030679;28;1112;-73
2022/05/20 08:30:34;;;;;;;;;;;;;;;;;;5013024;28;1246;-73
2022/05/20 08:33:01;;;;;;;;;;;;;;;;;;5030912;28;1973;-73
2022/05/20 08:35:27;;;;;;;;;;;;;;;;;;5012767;28;1335;-74
2022/05/20 08:37:54;;;;;;;;;;;;;;;;;;5030388;28;1298;-74
2022/05/20 08:40:22;;;;;;;;;;;;;;;;;;5030789;28;913;-72
2022/05/20 08:42:49;;;;;;;;;;;;;;;;;;5030765;28;898;-73
2022/05/20 08:45:16;;;;;;;;;;;;;;;;;;5012660;28;1302;-73
2022/05/20 08:47:43;;;;;;;;;;;;;;;;;;5029680;28;1415;-74
2022/05/20 08:50:12;;;;;;;;;;;;;;;;;;5030579;28;866;-74
2022/05/20 08:52:38;;;;;;;;;;;;;;;;;;5012511;28;1918;-73
2022/05/20 08:55:05;;;;;;;;;;;;;;;;;;5031968;28;830;-74
2022/05/20 08:57:33;;;;;;;;;;;;;;;;;;5029431;28;1342;-74
2022/05/20 09:00:00;;;;;;;;;;;;;;;;;;5030426;28;1092;-73
2022/05/20 09:02:26;;;;;;;;;;;;;;;;;;5012591;28;1315;-73
2022/05/20 09:04:52;;;;;;;;;;;;;;;;;;5030285;28;1048;-74
2022/05/20 09:07:19;;;;;;;;;;;;;;;;;;5029581;28;1411;-74
2022/05/20 09:09:47;;;;;;;;;;;;;;;;;;5030314;28;874;-74
2022/05/20 09:12:24;;;;;;;;;;;;;;;;;;5030348;28;858;-74
2022/05/20 09:17:41;;;;;;;;;;;;;;;;;;5029685;28;1416;-73
2022/05/20 09:20:10;;;;;;;;;;;;;;;;;;5030256;28;1116;-73
2022/05/20 09:22:37;;;;;;;;;;;;;;;;;;5012312;28;1462;-73
2022/05/20 09:25:04;;;;;;;;;;;;;;;;;;5030003;28;937;-75
2022/05/20 09:27:31;;;;;;;;;;;;;;;;;;5011561;28;1353;-73
2022/05/20 09:30:00;;;;;;;;;;;;;;;;;;5030389;28;1403;-74
2022/05/20 09:32:29;;;;;;;;;;;;;;;;;;5031798;28;905;-73
2022/05/20 09:35:02;;;;;;;;;;;;;;;;;;5013798;28;847;-73
2022/05/20 09:37:29;;;;;;;;;;;;;;;;;;5029809;28;1471;-75
2022/05/20 09:39:56;;;;;;;;;;;;;;;;;;5012563;28;1097;-74
2022/05/20 09:42:23;;;;;;;;;;;;;;;;;;5030234;28;1064;-74
2022/05/20 09:44:49;;;;;;;;;;;;;;;;;;5030346;28;833;-74
2022/05/20 09:47:21;;;;;;;;;;;;;;;;;;5029854;28;1299;-74
2022/05/20 09:49:52;;;;;;;;;;;;;;;;;;5030081;28;846;-73
2022/05/20 09:52:19;;;;;;;;;;;;;;;;;;5029795;28;791;-71
2022/05/20 09:54:46;;;;;;;;;;;;;;;;;;5011918;28;1923;-74
2022/05/20 09:57:13;;;;;;;;;;;;;;;;;;5011877;28;1419;-73
2022/05/20 09:59:41;;;;;;;;;;;;;;;;;;5029615;28;965;-73
2022/05/20 10:02:09;;;;;;;;;;;;;;;;;;5029133;28;1547;-73
2022/05/20 10:04:42;;;;;;;;;;;;;;;;;;5029479;28;1123;-71
2022/05/20 10:07:10;;;;;;;;;;;;;;;;;;5029363;28;1474;-73
2022/05/20 10:09:37;;;;;;;;;;;;;;;;;;5031031;28;782;-74
2022/05/20 10:12:05;;;;;;;;;;;;;;;;;;5033998;28;853;-74
2022/05/20 10:14:34;;;;;;;;;;;;;;;;;;5033432;28;1973;-73
2022/05/20 10:17:01;;;;;;;;;;;;;;;;;;5033231;28;1306;-73
2022/05/20 10:19:30;;;;;;;;;;;;;;;;;;5033304;28;910;-71
2022/05/20 10:22:00;;;;;;;;;;;;;;;;;;5033629;28;787;-73
2022/05/20 10:24:33;;;;;;;;;;;;;;;;;;5033039;28;937;-73
2022/05/20 10:27:00;;;;;;;;;;;;;;;;;;5032944;28;1411;-74
2022/05/20 10:34:58;;;;;;;;;;;;;;;;;;5031952;28;1981;-73
2022/05/20 10:37:27;;;;;;;;;;;;;;;;;;5031916;28;1356;-73
2022/05/20 10:40:02;;;;;;;;;;;;;;;;;;5032719;28;1406;-72
2022/05/20 10:42:33;;;;;;;;;;;;;;;;;;5033067;28;1068;-74
2022/05/20 10:50:46;;;;;;;;;;;;;;;;;;5033325;28;1044;-75
2022/05/20 10:53:16;;;;;;;;;;;;;;;;;;5032849;28;1906;-74
2022/05/20 10:55:50;;;;;;;;;;;;;;;;;;5014966;28;1383;-74
2022/05/20 10:58:23;;;;;;;;;;;;;;;;;;5032596;28;906;-75
2022/05/20 11:00:50;;;;;;;;;;;;;;;;;;5011755;28;2206;-75
2022/05/20 11:03:35;;;;;;;;;;;;;;;;;;5024388;28;1003;-75
2022/05/20 11:06:09;;;;;;;;;;;;;;;;;;5016397;28;1409;-75
2022/05/20 11:08:39;;;;;;;;;;;;;;;;;;5012526;28;1286;-77
2022/05/20 11:11:15;;;;;;;;;;;;;;;;;;5013229;28;1049;-75
2022/05/20 11:13:48;;;;;;;;;;;;;;;;;;5012438;28;1980;-76
2022/05/20 11:16:22;;;;;;;;;;;;;;;;;;4994747;28;1306;-75
2022/05/20 11:18:55;;;;;;;;;;;;;;;;;;4995133;28;1153;-74
2022/05/20 11:21:26;;;;;;;;;;;;;;;;;;5011619;28;1064;-75
2022/05/20 11:24:01;;;;;;;;;;;;;;;;;;5012079;28;999;-75
2022/05/20 11:26:41;;;;;;;;;;;;;;;;;;5012200;28;1326;-74
2022/05/20 11:29:14;;;;;;;;;;;;;;;;;;4994992;28;985;-76
2022/05/20 11:31:45;;;;;;;;;;;;;;;;;;5012486;28;798;-75
2022/05/20 11:34:14;;;;;;;;;;;;;;;;;;4994633;28;1910;-75
2022/05/20 11:36:52;;;;;;;;;;;;;;;;;;5011751;28;1397;-75
2022/05/20 11:39:48;;;;;;;;;;;;;;;;;;5012140;28;1096;-75
2022/05/20 11:42:17;;;;;;;;;;;;;;;;;;4951665;29;1080;-75
2022/05/20 11:44:46;;;;;;;;;;;;;;;;;;4980190;28;1119;-75
2022/05/20 11:47:32;;;;;;;;;;;;;;;;;;5011829;28;1477;-74
2022/05/20 11:50:12;;;;;;;;;;;;;;;;;;5012265;28;1056;-75
2022/05/20 11:52:40;;;;;;;;;;;;;;;;;;5011832;28;706;-74
2022/05/20 11:55:07;;;;;;;;;;;;;;;;;;5011820;28;1981;-75
2022/05/20 11:57:38;;;;;;;;;;;;;;;;;;5011387;28;1322;-76
2022/05/20 12:00:05;;;;;;;;;;;;;;;;;;5012048;28;589;-76
2022/05/20 12:02:35;;;;;;;;;;;;;;;;;;5011961;28;933;-76
2022/05/20 12:05:02;;;;;;;;;;;;;;;;;;5011506;28;954;-76
2022/05/20 12:07:28;;;;;;;;;;;;;;;;;;5011688;28;1333;-75
2022/05/20 12:09:54;;;;;;;;;;;;;;;;;;4993803;28;1247;-76
2022/05/20 12:12:25;;;;;;;;;;;;;;;;;;5019362;28;1370;-76
2022/05/20 12:15:04;;;;;;;;;;;;;;;;;;5029673;28;1918;-76
2022/05/20 12:17:30;;;;;;;;;;;;;;;;;;5030676;28;1403;-76
2022/05/20 12:25:34;;;;;;;;;;;;;;;;;;5029236;28;918;-76
2022/05/20 12:28:05;;;;;;;;;;;;;;;;;;5030403;28;1357;-76
2022/05/20 12:30:38;;;;;;;;;;;;;;;;;;5029260;28;1249;-76
2022/05/20 12:33:17;;;;;;;;;;;;;;;;;;5030565;28;1000;-76
2022/05/20 12:35:43;;;;;;;;;;;;;;;;;;5030226;28;1922;-76
2022/05/20 12:38:24;;;;;;;;;;;;;;;;;;5030173;28;1311;-76
2022/05/20 12:41:00;;;;;;;;;;;;;;;;;;5030281;28;946;-76
2022/05/20 12:43:53;;;;;;;;;;;;;;;;;;5030436;28;1064;-76
2022/05/20 12:46:36;;;;;;;;;;;;;;;;;;4974698;28;1393;-76
2022/05/20 12:49:03;;;;;;;;;;;;;;;;;;5025340;28;1126;-76
2022/05/20 12:51:29;;;;;;;;;;;;;;;;;;5030442;28;795;-75
2022/05/20 12:53:55;;;;;;;;;;;;;;;;;;5030235;28;1973;-75
2022/05/20 12:56:25;;;;;;;;;;;;;;;;;;5029770;28;1326;-75
2022/05/20 12:58:52;;;;;;;;;;;;;;;;;;5029548;28;1530;-75
2022/05/20 13:01:18;;;;;;;;;;;;;;;;;;4992968;28;1133;-76
2022/05/20 13:03:45;;;;;;;;;;;;;;;;;;5011147;28;926;-75
2022/05/20 13:06:13;;;;;;;;;;;;;;;;;;5010311;28;1311;-75
2022/05/20 13:08:42;;;;;;;;;;;;;;;;;;5010572;28;949;-76
2022/05/20 13:11:08;;;;;;;;;;;;;;;;;;5010587;28;815;-76
2022/05/20 13:13:35;;;;;;;;;;;;;;;;;;5010680;28;1906;-76
2022/05/20 13:16:01;;;;;;;;;;;;;;;;;;4992751;28;1319;-76
2022/05/20 13:18:28;;;;;;;;;;;;;;;;;;5010482;28;1087;-76
2022/05/20 13:20:56;;;;;;;;;;;;;;;;;;5010812;28;997;-76
2022/05/20 13:23:24;;;;;;;;;;;;;;;;;;4992515;28;1256;-76
2022/05/20 13:25:50;;;;;;;;;;;;;;;;;;5010313;28;1417;-76
2022/05/20 13:28:23;;;;;;;;;;;;;;;;;;5010157;28;1142;-76
2022/05/20 13:30:50;;;;;;;;;;;;;;;;;;5010422;28;900;-76
2022/05/20 13:33:16;;;;;;;;;;;;;;;;;;4992811;28;1140;-77
2022/05/20 13:35:42;;;;;;;;;;;;;;;;;;5010367;28;1954;-77
2022/05/20 13:38:09;;;;;;;;;;;;;;;;;;5010268;28;1147;-75
2022/05/20 13:40:39;;;;;;;;;;;;;;;;;;5010829;28;780;-76
2022/05/20 13:43:05;;;;;;;;;;;;;;;;;;5010043;28;1463;-76
2022/05/20 13:51:02;;;;;;;;;;;;;;;;;;5016329;28;815;-76
2022/05/20 13:53:29;;;;;;;;;;;;;;;;;;5016261;28;1119;-74
2022/05/20 13:55:55;;;;;;;;;;;;;;;;;;5016268;28;1970;-74
2022/05/20 13:58:22;;;;;;;;;;;;;;;;;;5016491;28;954;-74
2022/05/20 14:00:48;;;;;;;;;;;;;;;;;;5016236;28;1107;-74
2022/05/20 14:03:15;;;;;;;;;;;;;;;;;;5025455;28;1504;-75
2022/05/20 14:05:43;;;;;;;;;;;;;;;;;;5035612;28;1468;-75
2022/05/20 14:08:11;;;;;;;;;;;;;;;;;;5035737;28;847;-75
2022/05/20 14:10:40;;;;;;;;;;;;;;;;;;5035859;28;1068;-74
2022/05/20 14:13:07;;;;;;;;;;;;;;;;;;5018241;28;1149;-75
2022/05/20 14:15:40;;;;;;;;;;;;;;;;;;5035584;28;1964;-75
2022/05/20 14:18:07;;;;;;;;;;;;;;;;;;5035874;28;1088;-74
2022/05/20 14:20:35;;;;;;;;;;;;;;;;;;5034870;28;1479;-74
2022/05/20 14:23:01;;;;;;;;;;;;;;;;;;5034871;28;1328;-74
2022/05/20 14:25:29;;;;;;;;;;;;;;;;;;5033621;28;1472;-74
2022/05/20 14:28:09;;;;;;;;;;;;;;;;;;5032680;28;1310;-74
2022/05/20 14:30:37;;;;;;;;;;;;;;;;;;5033347;28;1260;-75
2022/05/20 14:33:04;;;;;;;;;;;;;;;;;;5035768;28;1339;-74
2022/05/20 14:35:32;;;;;;;;;;;;;;;;;;5033793;28;1918;-73
2022/05/20 14:37:59;;;;;;;;;;;;;;;;;;5035101;28;1301;-74
2022/05/20 14:40:27;;;;;;;;;;;;;;;;;;5035059;28;1244;-73
2022/05/20 14:42:54;;;;;;;;;;;;;;;;;;5033095;28;1375;-74
2022/05/20 14:45:23;;;;;;;;;;;;;;;;;;5035543;28;1072;-74
2022/05/20 14:47:51;;;;;;;;;;;;;;;;;;5034024;28;1477;-74
2022/05/20 14:50:18;;;;;;;;;;;;;;;;;;5036135;28;961;-75
2022/05/20 14:52:45;;;;;;;;;;;;;;;;;;5035976;28;767;-75
2022/05/20 14:55:14;;;;;;;;;;;;;;;;;;5035094;28;1979;-74
2022/05/20 14:57:40;;;;;;;;;;;;;;;;;;5032165;28;1410;-74
2022/05/20 15:00:11;;;;;;;;;;;;;;;;;;5014723;28;1153;-75
2022/05/20 15:02:39;;;;;;;;;;;;;;;;;;5032404;28;1079;-74
2022/05/20 15:05:05;;;;;;;;;;;;;;;;;;5032469;28;1012;-74
2022/05/20 15:07:31;;;;;;;;;;;;;;;;;;5014350;28;1340;-74
2022/05/20 15:09:57;;;;;;;;;;;;;;;;;;5032610;28;885;-74
2022/05/20 15:12:24;;;;;;;;;;;;;;;;;;5032438;28;884;-74
2022/05/20 15:14:50;;;;;;;;;;;;;;;;;;5028160;28;1914;-73
2022/05/20 15:17:17;;;;;;;;;;;;;;;;;;5031825;28;1411;-73
2022/05/20 15:19:45;;;;;;;;;;;;;;;;;;5032514;28;1225;-73
2022/05/20 15:22:12;;;;;;;;;;;;;;;;;;5014510;28;1150;-73
2022/05/20 15:24:43;;;;;;;;;;;;;;;;;;5013992;28;1334;-73
2022/05/20 15:27:10;;;;;;;;;;;;;;;;;;5031860;28;1320;-74
2022/05/20 15:29:36;;;;;;;;;;;;;;;;;;5031843;28;1087;-73
2022/05/20 15:34:54;;;;;;;;;;;;;;;;;;5013767;28;1914;-73
2022/05/20 15:37:22;;;;;;;;;;;;;;;;;;5013656;28;1351;-73
2022/05/20 15:39:49;;;;;;;;;;;;;;;;;;5031856;28;1075;-73
2022/05/20 15:42:15;;;;;;;;;;;;;;;;;;5031891;28;1080;-73
2022/05/20 15:44:42;;;;;;;;;;;;;;;;;;5031517;28;1127;-72
2022/05/20 15:47:09;;;;;;;;;;;;;;;;;;5031481;28;1362;-73
2022/05/20 15:49:35;;;;;;;;;;;;;;;;;;5031518;28;1084;-73
2022/05/20 15:52:03;;;;;;;;;;;;;;;;;;5014264;28;1167;-73
2022/05/20 15:54:29;;;;;;;;;;;;;;;;;;5031062;28;1914;-73
2022/05/20 15:56:55;;;;;;;;;;;;;;;;;;5031427;28;1286;-73
2022/05/20 15:59:22;;;;;;;;;;;;;;;;;;5031190;28;1171;-73
2022/05/20 16:01:48;;;;;;;;;;;;;;;;;;5031858;28;1108;-73
2022/05/20 16:04:14;;;;;;;;;;;;;;;;;;5031878;28;1052;-73
2022/05/20 16:06:42;;;;;;;;;;;;;;;;;;5029277;28;1489;-73
2022/05/20 16:09:10;;;;;;;;;;;;;;;;;;5031202;28;815;-74
2022/05/20 16:11:37;;;;;;;;;;;;;;;;;;5031606;28;1091;-74
2022/05/20 16:14:03;;;;;;;;;;;;;;;;;;5013996;28;1297;-73
2022/05/20 16:16:29;;;;;;;;;;;;;;;;;;5031213;28;1973;-73
2022/05/20 16:18:57;;;;;;;;;;;;;;;;;;5031719;28;867;-73
2022/05/20 16:21:24;;;;;;;;;;;;;;;;;;5013770;28;1184;-73
2022/05/20 16:23:51;;;;;;;;;;;;;;;;;;5031277;28;787;-73
2022/05/20 16:26:20;;;;;;;;;;;;;;;;;;5030998;28;1368;-73
2022/05/20 16:28:46;;;;;;;;;;;;;;;;;;5031398;28;1072;-73
2022/05/20 16:31:13;;;;;;;;;;;;;;;;;;5031303;28;729;-73
2022/05/20 16:33:39;;;;;;;;;;;;;;;;;;5031220;28;886;-74
2022/05/20 16:36:05;;;;;;;;;;;;;;;;;;5030809;28;1914;-73
2022/05/20 16:38:31;;;;;;;;;;;;;;;;;;5031160;28;906;-73
2022/05/20 16:40:58;;;;;;;;;;;;;;;;;;5013345;28;1041;-73
2022/05/20 16:43:25;;;;;;;;;;;;;;;;;;5030764;28;1123;-73
2022/05/20 16:45:52;;;;;;;;;;;;;;;;;;5031162;28;1268;-73
2022/05/20 16:48:19;;;;;;;;;;;;;;;;;;5030762;28;807;-74
2022/05/20 16:50:46;;;;;;;;;;;;;;;;;;5031286;28;1155;-74
2022/05/20 16:53:13;;;;;;;;;;;;;;;;;;5030885;28;862;-74
2022/05/20 16:55:40;;;;;;;;;;;;;;;;;;5030574;28;1907;-74
2022/05/20 17:03:34;;;;;;;;;;;;;;;;;;5007848;28;1139;-74
2022/05/20 17:06:01;;;;;;;;;;;;;;;;;;5020385;28;1307;-73
2022/05/20 17:08:27;;;;;;;;;;;;;;;;;;5010834;28;766;-73
2022/05/20 17:10:53;;;;;;;;;;;;;;;;;;4993193;28;1336;-73
2022/05/20 17:13:21;;;;;;;;;;;;;;;;;;5010755;28;1132;-73
2022/05/20 17:15:47;;;;;;;;;;;;;;;;;;5010879;28;1910;-73
2022/05/20 17:18:14;;;;;;;;;;;;;;;;;;5010369;28;1076;-73
2022/05/20 17:20:41;;;;;;;;;;;;;;;;;;5010313;28;941;-74
2022/05/20 17:25:54;;;;;;;;;;;;;;;;;;5011226;28;1290;-74
2022/05/20 17:28:21;;;;;;;;;;;;;;;;;;4992917;28;1340;-74
2022/05/20 17:30:47;;;;;;;;;;;;;;;;;;4993641;28;1157;-74
2022/05/20 17:33:14;;;;;;;;;;;;;;;;;;4993260;28;1143;-73
2022/05/20 17:35:41;;;;;;;;;;;;;;;;;;5010732;28;1916;-73
2022/05/20 17:38:07;;;;;;;;;;;;;;;;;;5009939;28;926;-73
2022/05/20 17:40:33;;;;;;;;;;;;;;;;;;5010511;28;882;-74
2022/05/20 17:42:59;;;;;;;;;;;;;;;;;;5010442;28;711;-74
2022/05/20 17:45:25;;;;;;;;;;;;;;;;;;5010581;28;1020;-73
2022/05/20 17:47:52;;;;;;;;;;;;;;;;;;4992628;28;1330;-76
2022/05/20 17:50:19;;;;;;;;;;;;;;;;;;5010489;28;1044;-73
2022/05/20 17:52:45;;;;;;;;;;;;;;;;;;5010481;28;596;-74
2022/05/20 17:55:11;;;;;;;;;;;;;;;;;;5010359;28;1918;-73
2022/05/20 17:57:38;;;;;;;;;;;;;;;;;;5010266;28;1366;-73
2022/05/20 18:00:05;;;;;;;;;;;;;;;;;;5010187;28;1112;-74
2022/05/20 18:02:38;;;;;;;;;;;;;;;;;;5010551;28;672;-74
2022/05/20 18:05:04;;;;;;;;;;;;;;;;;;5010431;28;1048;-74
2022/05/20 18:07:32;;;;;;;;;;;;;;;;;;5010093;28;1370;-73
2022/05/20 18:09:58;;;;;;;;;;;;;;;;;;5028870;28;1497;-74
2022/05/20 18:12:24;;;;;;;;;;;;;;;;;;5030049;28;1080;-74
2022/05/20 18:14:51;;;;;;;;;;;;;;;;;;5029854;28;794;-74